sensor_id;sensor_type;location;lat;lon;timestamp;temperature;humidity
935;DHT22;454;53.254;10.400;2023-11-18T05:02:11;4.70;99.90
935;DHT22;454;53.254;10.400;2023-11-18T05:04:38;4.70;99.90
935;DHT22;454;53.254;10.400;2023-11-18T05:07:06;4.60;99.90
935;DHT22;454;53.254;10.400;2023-11-18T05:09:33;4.60;99.90
935;DHT22;454;53.254;10.400;2023-11-18T05:12:00;4.60;99.90
935;DHT22;454;53.254;10.400;2023-11-18T05:14:27;4.50;99.90
935;DHT22;454;53.254;10.400;2023-11-18T05:16:55;4.50;99.90
935;DHT22;454;53.254;10.400;2023-11-18T05:19:23;4.40;99.90
935;DHT22;454;53.254;10.400;2023-11-18T05:21:50;4.30;99.90
935;DHT22;454;53.254;10.400;2023-11-18T05:24:17;4.30;99.90
935;DHT22;454;53.254;10.400;2023-11-18T05:26:43;4.20;99.90
935;DHT22;454;53.254;10.400;2023-11-18T05:29:10;4.20;99.90
935;DHT22;454;53.254;10.400;2023-11-18T05:31:41;4.10;99.90
935;DHT22;454;53.254;10.400;2023-11-18T05:34:08;4.10;99.90
935;DHT22;454;53.254;10.400;2023-11-18T05:36:36;4.00;99.90
935;DHT22;454;53.254;10.400;2023-11-18T05:39:03;4.00;99.90
935;DHT22;454;53.254;10.400;2023-11-18T05:41:32;3.90;99.90
935;DHT22;454;53.254;10.400;2023-11-18T05:44:00;3.90;99.90
935;DHT22;454;53.254;10.400;2023-11-18T05:46:27;3.90;99.90
935;DHT22;454;53.254;10.400;2023-11-18T05:48:55;3.80;99.90
935;DHT22;454;53.254;10.400;2023-11-18T05:51:24;3.80;99.90
935;DHT22;454;53.254;10.400;2023-11-18T05:53:52;3.80;99.90
935;DHT22;454;53.254;10.400;2023-11-18T05:56:21;3.80;99.90
935;DHT22;454;53.254;10.400;2023-11-18T05:58:48;3.80;99.90
935;DHT22;454;53.254;10.400;2023-11-18T06:01:15;3.80;99.90
935;DHT22;454;53.254;10.400;2023-11-18T06:03:43;3.80;99.90
935;DHT22;454;53.254;10.400;2023-11-18T06:06:10;3.80;99.90
935;DHT22;454;53.254;10.400;2023-11-18T06:08:38;3.90;99.90
935;DHT22;454;53.254;10.400;2023-11-18T06:11:07;3.90;99.90
935;DHT22;454;53.254;10.400;2023-11-18T06:13:40;3.90;99.90
935;DHT22;454;53.254;10.400;2023-11-18T06:16:12;3.90;99.90
935;DHT22;454;53.254;10.400;2023-11-18T06:18:41;3.80;99.90
935;DHT22;454;53.254;10.400;2023-11-18T06:21:11;3.80;99.90
935;DHT22;454;53.254;10.400;2023-11-18T06:23:37;3.80;99.90
935;DHT22;454;53.254;10.400;2023-11-18T06:26:04;3.80;99.90
935;DHT22;454;53.254;10.400;2023-11-18T06:28:33;3.80;99.90
935;DHT22;454;53.254;10.400;2023-11-18T06:31:00;3.70;99.90
935;DHT22;454;53.254;10.400;2023-11-18T06:33:27;3.70;99.90
935;DHT22;454;53.254;10.400;2023-11-18T06:35:54;3.70;99.90
935;DHT22;454;53.254;10.400;2023-11-18T06:38:22;3.60;99.90
935;DHT22;454;53.254;10.400;2023-11-18T06:40:50;3.60;99.90
935;DHT22;454;53.254;10.400;2023-11-18T06:43:18;3.60;99.90
935;DHT22;454;53.254;10.400;2023-11-18T06:45:47;3.50;99.90
935;DHT22;454;53.254;10.400;2023-11-18T06:48:14;3.50;99.90
935;DHT22;454;53.254;10.400;2023-11-18T06:50:45;3.40;99.90
935;DHT22;454;53.254;10.400;2023-11-18T06:53:12;3.40;99.90
935;DHT22;454;53.254;10.400;2023-11-18T06:55:41;3.40;99.90
935;DHT22;454;53.254;10.400;2023-11-18T06:58:07;3.30;99.90
935;DHT22;454;53.254;10.400;2023-11-18T07:00:36;3.30;99.90
935;DHT22;454;53.254;10.400;2023-11-18T07:03:05;3.30;99.90
935;DHT22;454;53.254;10.400;2023-11-18T07:05:32;3.30;99.90
935;DHT22;454;53.254;10.400;2023-11-18T07:07:58;3.20;99.90
935;DHT22;454;53.254;10.400;2023-11-18T07:10:25;3.20;99.90
935;DHT22;454;53.254;10.400;2023-11-18T07:12:53;3.20;99.90
935;DHT22;454;53.254;10.400;2023-11-18T07:15:20;3.10;99.90
935;DHT22;454;53.254;10.400;2023-11-18T07:17:47;3.10;99.90
935;DHT22;454;53.254;10.400;2023-11-18T07:20:14;3.10;99.90
935;DHT22;454;53.254;10.400;2023-11-18T07:22:40;3.10;99.90
935;DHT22;454;53.254;10.400;2023-11-18T07:25:07;3.10;99.90
935;DHT22;454;53.254;10.400;2023-11-18T07:27:35;3.10;99.90
935;DHT22;454;53.254;10.400;2023-11-18T07:30:02;3.10;99.90
935;DHT22;454;53.254;10.400;2023-11-18T07:32:31;3.10;99.90
935;DHT22;454;53.254;10.400;2023-11-18T07:34:59;3.10;99.90
935;DHT22;454;53.254;10.400;2023-11-18T07:37:27;3.10;99.90
935;DHT22;454;53.254;10.400;2023-11-18T07:39:58;3.20;99.90
935;DHT22;454;53.254;10.400;2023-11-18T07:42:26;3.10;99.90
935;DHT22;454;53.254;10.400;2023-11-18T07:44:52;3.10;99.90
935;DHT22;454;53.254;10.400;2023-11-18T07:47:20;3.10;99.90
935;DHT22;454;53.254;10.400;2023-11-18T07:49:47;3.10;99.90
935;DHT22;454;53.254;10.400;2023-11-18T07:52:13;3.20;99.90
935;DHT22;454;53.254;10.400;2023-11-18T07:54:41;3.20;99.90
935;DHT22;454;53.254;10.400;2023-11-18T07:57:08;3.20;99.90
935;DHT22;454;53.254;10.400;2023-11-18T07:59:36;3.30;99.90
935;DHT22;454;53.254;10.400;2023-11-18T08:02:03;3.30;99.90
935;DHT22;454;53.254;10.400;2023-11-18T08:04:34;3.30;99.90
935;DHT22;454;53.254;10.400;2023-11-18T08:07:01;3.40;99.90
935;DHT22;454;53.254;10.400;2023-11-18T08:09:29;3.40;99.90
935;DHT22;454;53.254;10.400;2023-11-18T08:11:58;3.40;99.90
935;DHT22;454;53.254;10.400;2023-11-18T08:14:25;3.40;99.90
935;DHT22;454;53.254;10.400;2023-11-18T08:16:52;3.40;99.90
935;DHT22;454;53.254;10.400;2023-11-18T08:19:21;3.50;99.90
935;DHT22;454;53.254;10.400;2023-11-18T08:21:48;3.50;99.90
935;DHT22;454;53.254;10.400;2023-11-18T08:24:15;3.60;99.90
935;DHT22;454;53.254;10.400;2023-11-18T08:26:42;3.60;99.90
935;DHT22;454;53.254;10.400;2023-11-18T08:29:10;3.60;99.90
935;DHT22;454;53.254;10.400;2023-11-18T08:31:38;3.70;99.90
935;DHT22;454;53.254;10.400;2023-11-18T08:34:06;3.70;99.90
935;DHT22;454;53.254;10.400;2023-11-18T08:36:32;3.70;99.90
935;DHT22;454;53.254;10.400;2023-11-18T08:38:59;3.80;99.90
935;DHT22;454;53.254;10.400;2023-11-18T08:41:26;3.80;99.90
935;DHT22;454;53.254;10.400;2023-11-18T08:43:56;3.80;99.90
935;DHT22;454;53.254;10.400;2023-11-18T08:46:24;3.90;99.90
935;DHT22;454;53.254;10.400;2023-11-18T08:48:52;3.90;99.90
935;DHT22;454;53.254;10.400;2023-11-18T08:51:21;3.90;99.90
935;DHT22;454;53.254;10.400;2023-11-18T08:53:50;4.00;99.90
935;DHT22;454;53.254;10.400;2023-11-18T08:56:16;4.00;99.90
935;DHT22;454;53.254;10.400;2023-11-18T08:58:45;4.00;99.90
935;DHT22;454;53.254;10.400;2023-11-18T09:01:14;4.00;99.90
935;DHT22;454;53.254;10.400;2023-11-18T09:03:43;4.00;99.90
935;DHT22;454;53.254;10.400;2023-11-18T09:06:14;3.90;99.90
935;DHT22;454;53.254;10.400;2023-11-18T09:08:45;4.00;99.90
935;DHT22;454;53.254;10.400;2023-11-18T09:11:13;4.10;99.90
935;DHT22;454;53.254;10.400;2023-11-18T09:13:42;4.10;99.90
935;DHT22;454;53.254;10.400;2023-11-18T09:16:10;4.20;99.90
935;DHT22;454;53.254;10.400;2023-11-18T09:18:38;4.30;99.90
935;DHT22;454;53.254;10.400;2023-11-18T09:21:07;4.40;99.90
935;DHT22;454;53.254;10.400;2023-11-18T09:23:40;4.40;99.90
935;DHT22;454;53.254;10.400;2023-11-18T09:26:07;4.50;99.90
935;DHT22;454;53.254;10.400;2023-11-18T09:28:35;4.60;99.90
935;DHT22;454;53.254;10.400;2023-11-18T09:31:02;4.70;99.90
935;DHT22;454;53.254;10.400;2023-11-18T09:33:30;4.80;99.90
935;DHT22;454;53.254;10.400;2023-11-18T09:35:58;4.80;99.90
935;DHT22;454;53.254;10.400;2023-11-18T09:38:27;4.90;99.90
935;DHT22;454;53.254;10.400;2023-11-18T09:40:55;5.00;99.90
935;DHT22;454;53.254;10.400;2023-11-18T09:43:24;5.00;99.90
935;DHT22;454;53.254;10.400;2023-11-18T09:45:55;5.00;99.90
935;DHT22;454;53.254;10.400;2023-11-18T09:48:22;5.10;99.90
935;DHT22;454;53.254;10.400;2023-11-18T09:50:52;5.10;99.90
935;DHT22;454;53.254;10.400;2023-11-18T09:53:20;5.10;99.90
935;DHT22;454;53.254;10.400;2023-11-18T09:55:56;5.20;99.90
935;DHT22;454;53.254;10.400;2023-11-18T09:58:25;5.20;99.90
935;DHT22;454;53.254;10.400;2023-11-18T10:00:58;5.20;99.90
935;DHT22;454;53.254;10.400;2023-11-18T10:03:28;5.30;99.90
935;DHT22;454;53.254;10.400;2023-11-18T10:05:56;5.30;99.90
935;DHT22;454;53.254;10.400;2023-11-18T10:08:23;5.40;99.90
935;DHT22;454;53.254;10.400;2023-11-18T10:10:52;5.40;99.90
935;DHT22;454;53.254;10.400;2023-11-18T10:13:31;5.40;99.90
935;DHT22;454;53.254;10.400;2023-11-18T10:16:00;5.50;99.90
935;DHT22;454;53.254;10.400;2023-11-18T10:18:27;5.60;99.90
935;DHT22;454;53.254;10.400;2023-11-18T10:20:54;5.60;99.90
935;DHT22;454;53.254;10.400;2023-11-18T10:23:21;5.70;99.90
935;DHT22;454;53.254;10.400;2023-11-18T10:25:50;5.80;99.90
935;DHT22;454;53.254;10.400;2023-11-18T10:28:23;5.90;99.90
935;DHT22;454;53.254;10.400;2023-11-18T10:30:50;6.10;99.90
935;DHT22;454;53.254;10.400;2023-11-18T10:33:17;6.20;99.90
935;DHT22;454;53.254;10.400;2023-11-18T10:35:51;6.40;99.90
935;DHT22;454;53.254;10.400;2023-11-18T10:38:21;6.60;99.90
935;DHT22;454;53.254;10.400;2023-11-18T10:40:52;6.60;99.90
935;DHT22;454;53.254;10.400;2023-11-18T10:43:22;6.70;99.90
935;DHT22;454;53.254;10.400;2023-11-18T10:45:51;6.60;99.90
935;DHT22;454;53.254;10.400;2023-11-18T10:48:18;6.60;99.90
935;DHT22;454;53.254;10.400;2023-11-18T10:50:47;6.50;99.90
935;DHT22;454;53.254;10.400;2023-11-18T10:53:16;6.40;99.90
935;DHT22;454;53.254;10.400;2023-11-18T10:55:43;6.50;99.90
935;DHT22;454;53.254;10.400;2023-11-18T10:58:10;6.50;99.90
935;DHT22;454;53.254;10.400;2023-11-18T11:00:48;6.50;99.90
935;DHT22;454;53.254;10.400;2023-11-18T11:03:15;6.60;99.90
935;DHT22;454;53.254;10.400;2023-11-18T11:05:43;6.70;99.90
935;DHT22;454;53.254;10.400;2023-11-18T11:08:13;6.70;99.90
935;DHT22;454;53.254;10.400;2023-11-18T11:10:41;6.70;99.90
935;DHT22;454;53.254;10.400;2023-11-18T11:13:09;6.70;99.90
935;DHT22;454;53.254;10.400;2023-11-18T11:15:43;6.70;99.90
935;DHT22;454;53.254;10.400;2023-11-18T11:18:13;6.70;99.90
935;DHT22;454;53.254;10.400;2023-11-18T11:20:56;6.70;99.90
935;DHT22;454;53.254;10.400;2023-11-18T11:23:34;6.70;99.90
935;DHT22;454;53.254;10.400;2023-11-18T11:26:16;6.70;99.90
935;DHT22;454;53.254;10.400;2023-11-18T11:28:52;6.80;99.90
935;DHT22;454;53.254;10.400;2023-11-18T11:31:21;6.80;99.90
935;DHT22;454;53.254;10.400;2023-11-18T11:33:57;6.90;99.90
935;DHT22;454;53.254;10.400;2023-11-18T11:36:29;6.90;99.90
935;DHT22;454;53.254;10.400;2023-11-18T11:38:59;6.90;99.90
935;DHT22;454;53.254;10.400;2023-11-18T11:41:29;6.90;99.90
935;DHT22;454;53.254;10.400;2023-11-18T11:44:00;7.00;99.90
935;DHT22;454;53.254;10.400;2023-11-18T11:46:31;6.90;99.90
935;DHT22;454;53.254;10.400;2023-11-18T11:49:02;6.90;99.90
935;DHT22;454;53.254;10.400;2023-11-18T11:51:45;6.90;99.90
935;DHT22;454;53.254;10.400;2023-11-18T11:54:19;6.90;99.90
935;DHT22;454;53.254;10.400;2023-11-18T11:56:48;6.90;99.90
935;DHT22;454;53.254;10.400;2023-11-18T11:59:35;7.00;99.90
935;DHT22;454;53.254;10.400;2023-11-18T12:02:03;7.00;99.90
935;DHT22;454;53.254;10.400;2023-11-18T12:04:34;7.00;99.90
935;DHT22;454;53.254;10.400;2023-11-18T12:07:04;7.00;99.90
935;DHT22;454;53.254;10.400;2023-11-18T12:09:31;7.00;99.90
935;DHT22;454;53.254;10.400;2023-11-18T12:12:03;7.00;99.90
935;DHT22;454;53.254;10.400;2023-11-18T12:14:49;7.00;99.90
935;DHT22;454;53.254;10.400;2023-11-18T12:17:16;7.00;99.90
935;DHT22;454;53.254;10.400;2023-11-18T12:19:49;7.00;99.90
935;DHT22;454;53.254;10.400;2023-11-18T12:22:24;7.00;99.90
935;DHT22;454;53.254;10.400;2023-11-18T12:28:13;6.90;99.90
935;DHT22;454;53.254;10.400;2023-11-18T12:30:42;6.90;99.90
935;DHT22;454;53.254;10.400;2023-11-18T12:34:00;6.90;99.90
935;DHT22;454;53.254;10.400;2023-11-18T12:36:56;6.90;99.90
935;DHT22;454;53.254;10.400;2023-11-18T12:42:51;6.90;99.90
935;DHT22;454;53.254;10.400;2023-11-18T12:45:57;6.80;99.90
935;DHT22;454;53.254;10.400;2023-11-18T12:48:31;6.90;99.90
935;DHT22;454;53.254;10.400;2023-11-18T12:50:58;6.90;99.90
935;DHT22;454;53.254;10.400;2023-11-18T12:53:27;6.90;99.90
935;DHT22;454;53.254;10.400;2023-11-18T12:55:55;6.90;99.90
935;DHT22;454;53.254;10.400;2023-11-18T12:58:22;6.90;99.90
935;DHT22;454;53.254;10.400;2023-11-18T13:00:49;6.90;99.90
935;DHT22;454;53.254;10.400;2023-11-18T13:03:15;6.80;99.90
935;DHT22;454;53.254;10.400;2023-11-18T13:05:43;6.80;99.90
935;DHT22;454;53.254;10.400;2023-11-18T13:08:11;6.80;99.90
935;DHT22;454;53.254;10.400;2023-11-18T13:10:42;6.80;99.90
935;DHT22;454;53.254;10.400;2023-11-18T13:13:10;6.80;99.90
935;DHT22;454;53.254;10.400;2023-11-18T13:15:39;6.80;99.90
935;DHT22;454;53.254;10.400;2023-11-18T13:18:06;6.80;99.90
935;DHT22;454;53.254;10.400;2023-11-18T13:20:34;6.80;99.90
935;DHT22;454;53.254;10.400;2023-11-18T13:23:01;6.80;99.90
935;DHT22;454;53.254;10.400;2023-11-18T13:25:34;6.80;99.90
935;DHT22;454;53.254;10.400;2023-11-18T13:28:03;6.80;99.90
935;DHT22;454;53.254;10.400;2023-11-18T13:30:30;6.80;99.90
935;DHT22;454;53.254;10.400;2023-11-18T13:32:57;6.80;99.90
935;DHT22;454;53.254;10.400;2023-11-18T13:35:24;6.80;99.90
935;DHT22;454;53.254;10.400;2023-11-18T13:37:51;6.80;99.90
935;DHT22;454;53.254;10.400;2023-11-18T13:40:19;6.80;99.90
935;DHT22;454;53.254;10.400;2023-11-18T13:42:46;6.80;99.90
935;DHT22;454;53.254;10.400;2023-11-18T13:45:14;6.70;99.90
935;DHT22;454;53.254;10.400;2023-11-18T13:47:49;6.70;99.90
935;DHT22;454;53.254;10.400;2023-11-18T13:50:17;6.70;99.90
935;DHT22;454;53.254;10.400;2023-11-18T13:52:46;6.70;99.90
935;DHT22;454;53.254;10.400;2023-11-18T13:55:15;6.70;99.90
935;DHT22;454;53.254;10.400;2023-11-18T13:57:52;6.70;99.90
935;DHT22;454;53.254;10.400;2023-11-18T14:00:23;6.70;99.90
935;DHT22;454;53.254;10.400;2023-11-18T14:02:53;6.70;99.90
935;DHT22;454;53.254;10.400;2023-11-18T14:05:21;6.60;99.90
935;DHT22;454;53.254;10.400;2023-11-18T14:07:49;6.70;99.90
935;DHT22;454;53.254;10.400;2023-11-18T14:10:16;6.60;99.90
935;DHT22;454;53.254;10.400;2023-11-18T14:13:00;6.60;99.90
935;DHT22;454;53.254;10.400;2023-11-18T14:15:29;6.50;99.90
935;DHT22;454;53.254;10.400;2023-11-18T14:17:56;6.50;99.90
935;DHT22;454;53.254;10.400;2023-11-18T14:20:23;6.50;99.90
935;DHT22;454;53.254;10.400;2023-11-18T14:22:50;6.40;99.90
935;DHT22;454;53.254;10.400;2023-11-18T14:25:17;6.40;99.90
935;DHT22;454;53.254;10.400;2023-11-18T14:27:44;6.40;99.90
935;DHT22;454;53.254;10.400;2023-11-18T14:30:12;6.40;99.90
935;DHT22;454;53.254;10.400;2023-11-18T14:32:40;6.40;99.90
935;DHT22;454;53.254;10.400;2023-11-18T14:35:07;6.40;99.90
935;DHT22;454;53.254;10.400;2023-11-18T14:37:37;6.40;99.90
935;DHT22;454;53.254;10.400;2023-11-18T14:40:08;6.30;99.90
935;DHT22;454;53.254;10.400;2023-11-18T14:42:39;6.30;99.90
935;DHT22;454;53.254;10.400;2023-11-18T14:45:06;6.30;99.90
935;DHT22;454;53.254;10.400;2023-11-18T14:47:34;6.30;99.90
935;DHT22;454;53.254;10.400;2023-11-18T14:50:02;6.20;99.90
935;DHT22;454;53.254;10.400;2023-11-18T14:52:31;6.20;99.90
935;DHT22;454;53.254;10.400;2023-11-18T14:54:57;6.20;99.90
935;DHT22;454;53.254;10.400;2023-11-18T14:57:24;6.20;99.90
935;DHT22;454;53.254;10.400;2023-11-18T14:59:51;6.10;99.90
935;DHT22;454;53.254;10.400;2023-11-18T15:02:17;6.20;99.90
935;DHT22;454;53.254;10.400;2023-11-18T15:04:45;6.10;99.90
935;DHT22;454;53.254;10.400;2023-11-18T15:07:13;6.10;99.90
935;DHT22;454;53.254;10.400;2023-11-18T15:09:39;6.10;99.90
935;DHT22;454;53.254;10.400;2023-11-18T15:12:07;6.10;99.90
935;DHT22;454;53.254;10.400;2023-11-18T15:14:34;6.10;99.90
935;DHT22;454;53.254;10.400;2023-11-18T15:17:01;6.10;99.90
935;DHT22;454;53.254;10.400;2023-11-18T15:19:29;6.10;99.90
935;DHT22;454;53.254;10.400;2023-11-18T15:21:58;6.10;99.90
935;DHT22;454;53.254;10.400;2023-11-18T15:24:26;6.10;99.90
935;DHT22;454;53.254;10.400;2023-11-18T15:26:53;6.10;99.90
935;DHT22;454;53.254;10.400;2023-11-18T15:29:20;6.10;99.90
935;DHT22;454;53.254;10.400;2023-11-18T15:31:53;6.10;99.90
935;DHT22;454;53.254;10.400;2023-11-18T15:34:20;6.10;99.90
935;DHT22;454;53.254;10.400;2023-11-18T15:36:47;6.10;99.90
935;DHT22;454;53.254;10.400;2023-11-18T15:39:14;6.00;99.90
935;DHT22;454;53.254;10.400;2023-11-18T15:41:42;6.00;99.90
935;DHT22;454;53.254;10.400;2023-11-18T15:44:09;6.10;99.90
935;DHT22;454;53.254;10.400;2023-11-18T15:46:38;6.10;99.90
935;DHT22;454;53.254;10.400;2023-11-18T15:49:05;6.10;99.90
935;DHT22;454;53.254;10.400;2023-11-18T15:51:31;6.10;99.90
935;DHT22;454;53.254;10.400;2023-11-18T15:53:58;6.10;99.90
935;DHT22;454;53.254;10.400;2023-11-18T15:56:25;6.10;99.90
935;DHT22;454;53.254;10.400;2023-11-18T15:58:53;6.10;99.90
935;DHT22;454;53.254;10.400;2023-11-18T16:01:20;6.10;99.90
935;DHT22;454;53.254;10.400;2023-11-18T16:03:47;6.10;99.90
935;DHT22;454;53.254;10.400;2023-11-18T16:06:15;6.10;99.90
935;DHT22;454;53.254;10.400;2023-11-18T16:08:42;6.10;99.90
935;DHT22;454;53.254;10.400;2023-11-18T16:11:11;6.10;99.90
935;DHT22;454;53.254;10.400;2023-11-18T16:13:38;6.10;99.90
935;DHT22;454;53.254;10.400;2023-11-18T16:16:06;6.10;99.90
935;DHT22;454;53.254;10.400;2023-11-18T16:18:34;6.10;99.90
935;DHT22;454;53.254;10.400;2023-11-18T16:21:01;6.10;99.90
935;DHT22;454;53.254;10.400;2023-11-18T16:23:29;6.10;99.90
935;DHT22;454;53.254;10.400;2023-11-18T16:26:00;6.10;99.90
935;DHT22;454;53.254;10.400;2023-11-18T16:28:27;6.10;99.90
935;DHT22;454;53.254;10.400;2023-11-18T16:30:54;6.10;99.90
935;DHT22;454;53.254;10.400;2023-11-18T16:33:23;6.10;99.90
935;DHT22;454;53.254;10.400;2023-11-18T16:35:50;6.10;99.90
935;DHT22;454;53.254;10.400;2023-11-18T16:38:18;6.10;99.90
935;DHT22;454;53.254;10.400;2023-11-18T16:40:45;6.10;99.90
935;DHT22;454;53.254;10.400;2023-11-18T16:43:11;6.20;99.90
935;DHT22;454;53.254;10.400;2023-11-18T16:45:38;6.20;99.90
935;DHT22;454;53.254;10.400;2023-11-18T16:48:05;6.20;99.90
935;DHT22;454;53.254;10.400;2023-11-18T16:50:33;6.20;99.90
935;DHT22;454;53.254;10.400;2023-11-18T16:53:01;6.20;99.90
935;DHT22;454;53.254;10.400;2023-11-18T16:55:29;6.20;99.90
935;DHT22;454;53.254;10.400;2023-11-18T16:57:58;6.20;99.90
935;DHT22;454;53.254;10.400;2023-11-18T17:00:24;6.10;99.90
935;DHT22;454;53.254;10.400;2023-11-18T17:02:53;6.10;99.90
935;DHT22;454;53.254;10.400;2023-11-18T17:05:21;6.10;99.90
935;DHT22;454;53.254;10.400;2023-11-18T17:07:49;6.00;99.90
935;DHT22;454;53.254;10.400;2023-11-18T17:10:16;6.00;99.90
935;DHT22;454;53.254;10.400;2023-11-18T17:12:44;6.00;99.90
935;DHT22;454;53.254;10.400;2023-11-18T17:15:12;6.00;99.90
935;DHT22;454;53.254;10.400;2023-11-18T17:17:39;5.90;99.90
935;DHT22;454;53.254;10.400;2023-11-18T17:20:07;5.90;99.90
935;DHT22;454;53.254;10.400;2023-11-18T17:22:35;5.90;99.90
935;DHT22;454;53.254;10.400;2023-11-18T17:25:06;5.90;99.90
935;DHT22;454;53.254;10.400;2023-11-18T17:27:38;5.90;99.90
935;DHT22;454;53.254;10.400;2023-11-18T17:30:05;5.80;99.90
935;DHT22;454;53.254;10.400;2023-11-18T17:32:37;5.80;99.90
935;DHT22;454;53.254;10.400;2023-11-18T17:35:05;5.80;99.90
935;DHT22;454;53.254;10.400;2023-11-18T17:37:31;5.80;99.90
935;DHT22;454;53.254;10.400;2023-11-18T17:39:58;5.70;99.90
935;DHT22;454;53.254;10.400;2023-11-18T17:42:26;5.70;99.90
935;DHT22;454;53.254;10.400;2023-11-18T17:44:53;5.70;99.90
935;DHT22;454;53.254;10.400;2023-11-18T17:47:20;5.70;99.90
935;DHT22;454;53.254;10.400;2023-11-18T17:49:47;5.60;99.90
935;DHT22;454;53.254;10.400;2023-11-18T17:52:14;5.60;99.90
935;DHT22;454;53.254;10.400;2023-11-18T17:54:41;5.60;99.90
935;DHT22;454;53.254;10.400;2023-11-18T17:57:09;5.60;99.90
935;DHT22;454;53.254;10.400;2023-11-18T17:59:37;5.60;99.90
935;DHT22;454;53.254;10.400;2023-11-18T18:02:04;5.50;99.90
935;DHT22;454;53.254;10.400;2023-11-18T18:04:31;5.50;99.90
935;DHT22;454;53.254;10.400;2023-11-18T18:06:57;5.50;99.90
935;DHT22;454;53.254;10.400;2023-11-18T18:09:24;5.40;99.90
935;DHT22;454;53.254;10.400;2023-11-18T18:11:51;5.40;99.90
935;DHT22;454;53.254;10.400;2023-11-18T18:14:17;5.40;99.90
935;DHT22;454;53.254;10.400;2023-11-18T18:16:45;5.40;99.90
935;DHT22;454;53.254;10.400;2023-11-18T18:19:12;5.40;99.90
935;DHT22;454;53.254;10.400;2023-11-18T18:21:39;5.40;99.90
935;DHT22;454;53.254;10.400;2023-11-18T18:24:06;5.40;99.90
935;DHT22;454;53.254;10.400;2023-11-18T18:26:33;5.40;99.90
935;DHT22;454;53.254;10.400;2023-11-18T18:29:00;5.40;99.90
935;DHT22;454;53.254;10.400;2023-11-18T18:31:27;5.40;99.90
935;DHT22;454;53.254;10.400;2023-11-18T18:33:55;5.40;99.90
935;DHT22;454;53.254;10.400;2023-11-18T18:36:22;5.50;99.90
935;DHT22;454;53.254;10.400;2023-11-18T18:38:49;5.50;99.90
935;DHT22;454;53.254;10.400;2023-11-18T18:41:15;5.50;99.90
935;DHT22;454;53.254;10.400;2023-11-18T18:43:42;5.50;99.90
935;DHT22;454;53.254;10.400;2023-11-18T18:46:09;5.50;99.90
935;DHT22;454;53.254;10.400;2023-11-18T18:48:39;5.50;99.90
935;DHT22;454;53.254;10.400;2023-11-18T18:51:07;5.40;99.90
935;DHT22;454;53.254;10.400;2023-11-18T18:53:35;5.40;99.90
935;DHT22;454;53.254;10.400;2023-11-18T18:56:02;5.40;99.90
935;DHT22;454;53.254;10.400;2023-11-18T18:58:30;5.40;99.90
935;DHT22;454;53.254;10.400;2023-11-18T19:00:57;5.40;99.90
935;DHT22;454;53.254;10.400;2023-11-18T19:03:24;5.40;99.90
935;DHT22;454;53.254;10.400;2023-11-18T19:05:50;5.40;99.90
935;DHT22;454;53.254;10.400;2023-11-18T19:08:18;5.50;99.90
935;DHT22;454;53.254;10.400;2023-11-18T19:10:45;5.50;99.90
935;DHT22;454;53.254;10.400;2023-11-18T19:13:12;5.50;99.90
935;DHT22;454;53.254;10.400;2023-11-18T19:15:39;5.50;99.90
935;DHT22;454;53.254;10.400;2023-11-18T19:18:06;5.50;99.90
935;DHT22;454;53.254;10.400;2023-11-18T19:20:32;5.50;99.90
935;DHT22;454;53.254;10.400;2023-11-18T19:22:59;5.50;99.90
935;DHT22;454;53.254;10.400;2023-11-18T19:25:27;5.50;99.90
935;DHT22;454;53.254;10.400;2023-11-18T19:27:54;5.50;99.90
935;DHT22;454;53.254;10.400;2023-11-18T19:30:20;5.50;99.90
935;DHT22;454;53.254;10.400;2023-11-18T19:32:47;5.50;99.90
935;DHT22;454;53.254;10.400;2023-11-18T19:35:14;5.50;99.90
935;DHT22;454;53.254;10.400;2023-11-18T19:37:41;5.50;99.90
935;DHT22;454;53.254;10.400;2023-11-18T19:40:09;5.50;99.90
935;DHT22;454;53.254;10.400;2023-11-18T19:42:37;5.50;99.90
935;DHT22;454;53.254;10.400;2023-11-18T19:45:05;5.50;99.90
935;DHT22;454;53.254;10.400;2023-11-18T19:47:33;5.50;99.90
935;DHT22;454;53.254;10.400;2023-11-18T19:50:01;5.50;99.90
935;DHT22;454;53.254;10.400;2023-11-18T19:52:29;5.50;99.90
935;DHT22;454;53.254;10.400;2023-11-18T19:54:55;5.50;99.90
935;DHT22;454;53.254;10.400;2023-11-18T19:57:22;5.50;99.90
935;DHT22;454;53.254;10.400;2023-11-18T19:59:50;5.50;99.90
935;DHT22;454;53.254;10.400;2023-11-18T20:02:18;5.50;99.90
935;DHT22;454;53.254;10.400;2023-11-18T20:04:45;5.50;99.90
935;DHT22;454;53.254;10.400;2023-11-18T20:07:12;5.50;99.90
935;DHT22;454;53.254;10.400;2023-11-18T20:09:39;5.50;99.90
935;DHT22;454;53.254;10.400;2023-11-18T20:12:06;5.50;99.90
935;DHT22;454;53.254;10.400;2023-11-18T20:14:33;5.40;99.90
935;DHT22;454;53.254;10.400;2023-11-18T20:17:01;5.50;99.90
935;DHT22;454;53.254;10.400;2023-11-18T20:19:28;5.50;99.90
935;DHT22;454;53.254;10.400;2023-11-18T20:21:55;5.50;99.90
935;DHT22;454;53.254;10.400;2023-11-18T20:24:22;5.50;99.90
935;DHT22;454;53.254;10.400;2023-11-18T20:26:49;5.40;99.90
935;DHT22;454;53.254;10.400;2023-11-18T20:29:16;5.40;99.90
935;DHT22;454;53.254;10.400;2023-11-18T20:31:43;5.40;99.90
935;DHT22;454;53.254;10.400;2023-11-18T20:34:11;5.40;99.90
935;DHT22;454;53.254;10.400;2023-11-18T20:36:38;5.40;99.90
935;DHT22;454;53.254;10.400;2023-11-18T20:39:05;5.40;99.90
935;DHT22;454;53.254;10.400;2023-11-18T20:41:32;5.40;99.90
935;DHT22;454;53.254;10.400;2023-11-18T20:43:59;5.40;99.90
935;DHT22;454;53.254;10.400;2023-11-18T20:46:27;5.40;99.90
935;DHT22;454;53.254;10.400;2023-11-18T20:48:53;5.40;99.90
935;DHT22;454;53.254;10.400;2023-11-18T20:51:21;5.40;99.90
935;DHT22;454;53.254;10.400;2023-11-18T20:53:48;5.40;99.90
935;DHT22;454;53.254;10.400;2023-11-18T20:56:16;5.40;99.90
935;DHT22;454;53.254;10.400;2023-11-18T20:58:45;5.40;99.90
935;DHT22;454;53.254;10.400;2023-11-18T21:01:13;5.40;99.90
935;DHT22;454;53.254;10.400;2023-11-18T21:03:41;5.40;99.90
935;DHT22;454;53.254;10.400;2023-11-18T21:06:08;5.40;99.90
935;DHT22;454;53.254;10.400;2023-11-18T21:08:36;5.40;99.90
935;DHT22;454;53.254;10.400;2023-11-18T21:11:03;5.40;99.90
935;DHT22;454;53.254;10.400;2023-11-18T21:13:30;5.40;99.90
935;DHT22;454;53.254;10.400;2023-11-18T21:16:00;5.40;99.90
935;DHT22;454;53.254;10.400;2023-11-18T21:18:27;5.40;99.90
935;DHT22;454;53.254;10.400;2023-11-18T21:20:53;5.40;99.90
935;DHT22;454;53.254;10.400;2023-11-18T21:23:20;5.40;99.90
935;DHT22;454;53.254;10.400;2023-11-18T21:25:48;5.40;99.90
935;DHT22;454;53.254;10.400;2023-11-18T21:28:15;5.40;99.90
935;DHT22;454;53.254;10.400;2023-11-18T21:30:42;5.40;99.90
935;DHT22;454;53.254;10.400;2023-11-18T21:33:08;5.50;99.90
935;DHT22;454;53.254;10.400;2023-11-18T21:35:35;5.40;99.90
935;DHT22;454;53.254;10.400;2023-11-18T21:38:03;5.50;99.90
935;DHT22;454;53.254;10.400;2023-11-18T21:40:29;5.40;99.90
935;DHT22;454;53.254;10.400;2023-11-18T21:42:58;5.40;99.90
935;DHT22;454;53.254;10.400;2023-11-18T21:45:26;5.40;99.90
935;DHT22;454;53.254;10.400;2023-11-18T21:47:55;5.50;99.90
935;DHT22;454;53.254;10.400;2023-11-18T21:50:25;5.40;99.90